Time;durP1;ratioP1;P1;durP2;ratioP2;P2;SDS_P1;SDS_P2;PMS_P1;PMS_P2;Temp;Humidity;BMP_temperature;BMP_pressure;BME280_temperature;BME280_humidity;BME280_pressure;Samples;Min_cycle;Max_cycle;Signal;HPM_P1;HPM_P2
2021/12/14 00:00:22;;;;;;;0.20;0.20;;;;;;;7.39;82.31;102780.38;5016997;28;20038;-75
2021/12/14 00:02:48;;;;;;;0.20;0.20;;;;;;;7.35;82.65;102780.97;5017466;28;20064;-75
2021/12/14 00:05:16;;;;;;;0.20;0.20;;;;;;;7.32;82.48;102788.53;5019731;28;20049;-74
2021/12/14 00:07:42;;;;;;;0.20;0.20;;;;;;;7.32;82.32;102793.75;5018587;28;20388;-74
2021/12/14 00:10:45;;;;;;;0.30;0.30;;;;;;;7.33;82.31;102801.69;5019933;28;20030;-75
2021/12/14 00:13:24;;;;;;;0.10;0.10;;;;;;;7.33;82.49;102806.91;5016584;28;20080;-74
2021/12/14 00:15:50;;;;;;;0.33;0.33;;;;;;;7.33;82.84;102808.63;5018792;28;20049;-74
2021/12/14 00:18:16;;;;;;;0.23;0.23;;;;;;;7.31;82.85;102813.72;5019379;28;20034;-74
2021/12/14 00:20:46;;;;;;;0.20;0.20;;;;;;;7.29;82.92;102807.50;5019189;28;20018;-74
2021/12/14 00:25:50;;;;;;;0.30;0.30;;;;;;;7.35;82.41;102802.69;5018519;28;20041;-74
2021/12/14 00:28:30;;;;;;;0.70;0.70;;;;;;;7.33;82.39;102809.50;5018987;28;20076;-74
2021/12/14 00:30:58;;;;;;;0.20;0.20;;;;;;;7.33;82.76;102806.91;5018497;28;20091;-74
2021/12/14 00:33:30;;;;;;;0.30;0.30;;;;;;;7.34;82.48;102816.53;5019273;28;20158;-75
2021/12/14 00:35:56;;;;;;;1.70;1.23;;;;;;;7.38;82.26;102817.66;5019003;28;20112;-74
2021/12/14 00:38:22;;;;;;;0.20;0.20;;;;;;;7.33;82.40;102799.09;5018721;28;20085;-75
2021/12/14 00:40:54;;;;;;;0.30;0.30;;;;;;;7.35;82.56;102794.88;4999580;28;20037;-74
2021/12/14 00:43:20;;;;;;;0.40;0.40;;;;;;;7.29;82.52;102790.13;5018405;28;20025;-75
2021/12/14 00:45:46;;;;;;;0.20;0.20;;;;;;;7.28;82.57;102793.53;5018287;28;20045;-75
2021/12/14 00:48:12;;;;;;;0.20;0.20;;;;;;;7.28;83.05;102790.00;5019139;28;20475;-74
2021/12/14 00:50:39;;;;;;;0.20;0.20;;;;;;;7.29;82.82;102786.66;5018080;28;20056;-75
2021/12/14 00:53:05;;;;;;;0.40;0.40;;;;;;;7.32;82.70;102780.72;5019339;28;20034;-73
2021/12/14 00:55:36;;;;;;;0.40;0.40;;;;;;;7.30;82.83;102783.25;5019055;28;20052;-73
2021/12/14 00:58:03;;;;;;;0.20;0.20;;;;;;;7.34;82.15;102781.78;4999689;28;20026;-73
2021/12/14 01:00:32;;;;;;;0.27;0.27;;;;;;;7.35;82.49;102779.25;5006233;28;20475;-73
2021/12/14 01:03:00;;;;;;;0.20;0.20;;;;;;;7.28;83.13;102753.53;5019530;28;20030;-73
2021/12/14 01:05:31;;;;;;;0.17;0.17;;;;;;;7.27;83.35;102757.84;5011334;28;20026;-74
2021/12/14 01:07:58;;;;;;;0.23;0.23;;;;;;;7.22;83.46;102754.00;5017603;28;20030;-75
2021/12/14 01:10:32;;;;;;;0.47;0.47;;;;;;;7.21;83.52;102752.19;5019647;28;20038;-74
2021/12/14 01:13:03;;;;;;;0.20;0.20;;;;;;;7.23;83.38;102740.16;5017978;28;20029;-74
2021/12/14 01:18:44;;;;;;;0.20;0.20;;;;;;;7.22;83.47;102748.78;5018885;28;20117;-72
2021/12/14 01:24:08;;;;;;;0.30;0.30;;;;;;;7.21;83.20;102731.34;5019190;28;20057;-74
2021/12/14 01:26:37;;;;;;;0.20;0.20;;;;;;;7.21;83.38;102730.47;5018081;28;20250;-75
2021/12/14 01:29:06;;;;;;;0.20;0.20;;;;;;;7.18;83.10;102728.53;5018220;28;20299;-67
2021/12/14 01:31:39;;;;;;;0.20;0.20;;;;;;;7.17;83.45;102724.13;5018174;28;20029;-74
2021/12/14 01:34:11;;;;;;;0.70;0.70;;;;;;;7.18;83.26;102733.75;5017969;28;20069;-73
2021/12/14 01:36:42;;;;;;;0.10;0.10;;;;;;;7.20;83.62;102734.75;5018432;28;20032;-72
2021/12/14 01:41:42;;;;;;;0.23;0.23;;;;;;;7.23;83.35;102750.59;5018310;28;20026;-73
2021/12/14 01:44:09;;;;;;;0.33;0.30;;;;;;;7.25;83.15;102753.31;5017985;28;20088;-73
2021/12/14 01:46:53;;;;;;;0.20;0.20;;;;;;;7.25;83.18;102759.44;5004719;28;20455;-73
2021/12/14 01:49:20;;;;;;;0.30;0.30;;;;;;;7.28;82.83;102743.09;4997760;28;20085;-70
2021/12/14 01:51:51;;;;;;;0.20;0.20;;;;;;;7.23;82.96;102744.50;5008287;28;20030;-73
2021/12/14 01:54:21;;;;;;;0.30;0.30;;;;;;;7.21;83.31;102749.59;5000962;28;20040;-71
2021/12/14 01:56:47;;;;;;;0.20;0.20;;;;;;;7.23;83.18;102747.09;5018042;28;20132;-73
2021/12/14 01:59:16;;;;;;;0.20;0.20;;;;;;;7.19;83.49;102743.38;5016932;28;20038;-74
2021/12/14 02:04:28;;;;;;;0.30;0.30;;;;;;;7.18;83.69;102754.59;4997589;28;20041;-72
2021/12/14 02:07:00;;;;;;;0.60;0.60;;;;;;;7.21;83.24;102754.78;5017531;28;20253;-73
2021/12/14 02:09:28;;;;;;;0.13;0.13;;;;;;;7.17;83.42;102747.56;5017708;28;20025;-72
2021/12/14 02:11:56;;;;;;;0.20;0.20;;;;;;;7.17;83.51;102752.78;5017071;28;20029;-72
2021/12/14 02:14:23;;;;;;;0.53;0.53;;;;;;;7.19;83.24;102750.25;5014635;28;20037;-71
2021/12/14 02:16:57;;;;;;;0.40;0.40;;;;;;;7.20;83.20;102747.78;5017796;28;20037;-72
2021/12/14 02:19:22;;;;;;;0.20;0.20;;;;;;;7.17;83.42;102752.78;5000719;28;20018;-72
2021/12/14 02:21:49;;;;;;;0.20;0.20;;;;;;;7.22;82.96;102742.69;5016844;28;20033;-72
2021/12/14 02:24:19;;;;;;;0.30;0.30;;;;;;;7.15;83.28;102742.22;5017609;28;20034;-71
2021/12/14 02:26:45;;;;;;;0.20;0.20;;;;;;;7.13;83.38;102742.91;5016839;28;20045;-72
2021/12/14 02:29:20;;;;;;;0.20;0.20;;;;;;;7.12;83.67;102743.72;5016895;28;20037;-69
2021/12/14 02:31:46;;;;;;;0.43;0.43;;;;;;;7.10;83.48;102751.41;5017082;28;20160;-71
2021/12/14 02:34:11;;;;;;;0.60;0.60;;;;;;;7.09;83.48;102741.78;5017509;28;20034;-71
2021/12/14 02:36:46;;;;;;;0.27;0.27;;;;;;;7.06;84.14;102754.59;5016554;28;20041;-73
2021/12/14 02:39:48;;;;;;;0.10;0.10;;;;;;;7.08;83.75;102736.44;5017410;28;20026;-71
2021/12/14 02:42:21;;;;;;;0.20;0.20;;;;;;;7.06;83.68;102730.22;5016509;28;20419;-72
2021/12/14 02:44:51;;;;;;;0.20;0.20;;;;;;;7.07;83.74;102743.38;5016869;28;20300;-71
2021/12/14 02:47:18;;;;;;;0.20;0.20;;;;;;;7.06;83.97;102743.25;5017136;28;20485;-70
2021/12/14 02:49:44;;;;;;;0.10;0.10;;;;;;;7.10;83.69;102727.06;5017243;28;20041;-70
2021/12/14 02:52:13;;;;;;;0.20;0.20;;;;;;;7.14;83.59;102727.41;5016488;28;20080;-71
2021/12/14 02:54:46;;;;;;;0.30;0.30;;;;;;;7.10;83.58;102716.66;4997823;28;20022;-71
2021/12/14 02:57:16;;;;;;;0.40;0.40;;;;;;;7.04;84.00;102724.00;5010905;28;20376;-72
2021/12/14 02:59:43;;;;;;;0.20;0.20;;;;;;;7.00;83.96;102718.59;5017073;28;20029;-72
2021/12/14 03:02:15;;;;;;;0.20;0.20;;;;;;;7.01;84.09;102716.88;5017137;28;20064;-72
2021/12/14 03:04:45;;;;;;;0.40;0.40;;;;;;;7.03;84.02;102723.09;5017352;28;20032;-72
2021/12/14 03:07:12;;;;;;;0.40;0.40;;;;;;;7.06;83.53;102730.22;5019534;28;20036;-72
2021/12/14 03:12:29;;;;;;;0.30;0.30;;;;;;;7.04;83.66;102740.53;5020126;28;20121;-72
2021/12/14 03:15:20;;;;;;;0.23;0.23;;;;;;;7.01;83.99;102735.09;5019630;28;20112;-71
2021/12/14 03:17:51;;;;;;;0.23;0.23;;;;;;;7.02;84.22;102742.13;5020827;28;20030;-73
2021/12/14 03:20:20;;;;;;;0.30;0.30;;;;;;;6.98;84.10;102740.09;5021081;28;20026;-72
2021/12/14 03:22:56;;;;;;;0.23;0.23;;;;;;;7.00;84.10;102743.72;5020488;28;20075;-72
2021/12/14 03:25:21;;;;;;;0.37;0.37;;;;;;;6.98;84.09;102737.50;5020047;28;20105;-72
2021/12/14 03:27:50;;;;;;;0.10;0.10;;;;;;;6.97;84.35;102747.00;5015035;28;20714;-71
2021/12/14 03:30:27;;;;;;;0.10;0.10;;;;;;;6.97;84.19;102735.69;5004945;28;20141;-71
2021/12/14 03:32:57;;;;;;;0.30;0.30;;;;;;;6.96;84.27;102733.84;5020673;28;20026;-71
2021/12/14 03:35:34;;;;;;;0.30;0.30;;;;;;;6.99;84.34;102745.41;5020791;28;20026;-72
2021/12/14 03:38:06;;;;;;;0.17;0.17;;;;;;;6.97;84.34;102757.41;5020810;28;20083;-72
2021/12/14 03:40:31;;;;;;;0.10;0.10;;;;;;;6.97;84.32;102759.13;5020229;28;20021;-72
2021/12/14 03:42:57;;;;;;;0.60;0.60;;;;;;;7.00;83.90;102756.75;5019408;28;20099;-71
2021/12/14 03:45:22;;;;;;;0.27;0.27;;;;;;;7.00;83.73;102755.06;5020444;28;20136;-71
2021/12/14 03:47:52;;;;;;;0.33;0.33;;;;;;;6.98;83.88;102754.00;5020039;28;20253;-71
2021/12/14 03:50:21;;;;;;;0.20;0.20;;;;;;;7.01;83.77;102758.56;5020406;28;20030;-71
2021/12/14 03:52:47;;;;;;;0.30;0.30;;;;;;;7.03;83.84;102753.47;5019772;28;20025;-72
2021/12/14 03:55:24;;;;;;;0.27;0.27;;;;;;;6.99;84.04;102758.44;5020183;28;20026;-72
2021/12/14 03:57:50;;;;;;;0.30;0.30;;;;;;;6.95;83.99;102759.00;5010243;28;20037;-71
2021/12/14 04:00:20;;;;;;;0.30;0.30;;;;;;;6.93;84.18;102755.41;5019578;28;20034;-71
2021/12/14 04:02:45;;;;;;;0.30;0.30;;;;;;;6.91;84.17;102741.31;5019892;28;20033;-71
2021/12/14 04:05:12;;;;;;;0.50;0.50;;;;;;;6.92;83.92;102742.25;5020527;28;20022;-72
2021/12/14 04:07:41;;;;;;;0.40;0.40;;;;;;;6.93;83.78;102742.38;5019436;28;20034;-72
2021/12/14 04:10:21;;;;;;;0.53;0.53;;;;;;;6.95;83.64;102751.19;5020451;28;20073;-73
2021/12/14 04:12:46;;;;;;;0.30;0.30;;;;;;;6.97;83.57;102748.72;5017769;28;20096;-74
2021/12/14 04:15:12;;;;;;;0.20;0.20;;;;;;;6.99;83.12;102747.13;5020053;28;20397;-70
2021/12/14 04:17:38;;;;;;;0.40;0.40;;;;;;;6.97;83.33;102756.53;5018560;28;20124;-73
2021/12/14 04:20:35;;;;;;;0.13;0.13;;;;;;;6.94;83.19;102764.09;5019879;28;20036;-72
2021/12/14 04:23:02;;;;;;;0.32;0.32;;;;;;;6.94;83.37;102761.50;5005362;28;20046;-72
2021/12/14 04:25:32;;;;;;;0.20;0.20;;;;;;;6.89;83.54;102757.66;5019382;28;20300;-72
2021/12/14 04:27:59;;;;;;;0.30;0.30;;;;;;;6.87;83.60;102758.41;5019187;28;20289;-72
2021/12/14 04:30:27;;;;;;;0.40;0.40;;;;;;;6.86;84.10;102755.72;5019382;28;20041;-71
2021/12/14 04:32:56;;;;;;;0.20;0.20;;;;;;;6.89;83.73;102755.06;5018764;28;20065;-72
2021/12/14 04:35:21;;;;;;;0.20;0.20;;;;;;;6.92;83.43;102761.38;5019332;28;20032;-71
2021/12/14 04:37:50;;;;;;;0.40;0.40;;;;;;;6.86;83.95;102759.22;5018874;28;20112;-73
2021/12/14 04:53:55;;;;;;;0.20;0.20;;;;;;;6.78;83.86;102729.09;5019589;28;20140;-72
2021/12/14 04:56:24;;;;;;;0.20;0.20;;;;;;;6.80;83.60;102740.53;5019079;28;20025;-73
2021/12/14 04:58:58;;;;;;;0.30;0.30;;;;;;;6.83;83.40;102735.56;5017781;28;20109;-71
2021/12/14 05:01:23;;;;;;;0.20;0.20;;;;;;;6.83;83.26;102735.56;5019023;28;20025;-72
2021/12/14 05:03:53;;;;;;;0.10;0.10;;;;;;;6.81;83.17;102729.34;5018732;28;20030;-74
2021/12/14 05:06:22;;;;;;;0.23;0.23;;;;;;;6.82;83.25;102730.22;5018275;28;20076;-72
2021/12/14 05:11:22;;;;;;;0.10;0.10;;;;;;;6.78;83.32;102723.00;5018528;28;20042;-72
2021/12/14 05:13:53;;;;;;;0.50;0.33;;;;;;;6.76;83.30;102724.56;5016154;28;20100;-71
2021/12/14 05:16:21;;;;;;;0.10;0.10;;;;;;;6.76;83.38;102727.16;5018843;28;20025;-70
2021/12/14 05:18:50;;;;;;;0.40;0.40;;;;;;;6.77;83.43;102722.09;5001307;28;20029;-72
2021/12/14 05:21:26;;;;;;;0.70;0.70;;;;;;;6.76;83.54;102717.66;5018591;28;20307;-72
2021/12/14 05:23:52;;;;;;;0.47;0.47;;;;;;;6.76;83.60;102727.16;5018575;28;20084;-71
2021/12/14 05:26:18;;;;;;;0.30;0.30;;;;;;;6.77;83.56;102726.41;5018054;28;20411;-72
2021/12/14 05:28:43;;;;;;;0.20;0.20;;;;;;;6.76;83.43;102728.09;5017017;28;20033;-72
2021/12/14 05:31:09;;;;;;;0.30;0.30;;;;;;;6.78;83.16;102729.09;5018337;28;20040;-72
2021/12/14 05:33:37;;;;;;;0.10;0.10;;;;;;;6.78;83.23;102730.81;5018019;28;20034;-73
2021/12/14 05:36:07;;;;;;;0.10;0.10;;;;;;;6.81;83.30;102731.94;5018379;28;20053;-72
2021/12/14 05:39:24;;;;;;;0.20;0.20;;;;;;;6.79;83.20;102733.50;5018032;28;20105;-71
2021/12/14 05:44:19;;;;;;;0.20;0.20;;;;;;;6.78;82.90;102734.31;5017613;28;20324;-71
2021/12/14 05:46:50;;;;;;;0.20;0.20;;;;;;;6.75;83.05;102736.69;5017801;28;20033;-71
2021/12/14 05:49:18;;;;;;;0.67;0.43;;;;;;;6.75;83.19;102734.09;5018215;28;20394;-73
2021/12/14 05:51:45;;;;;;;0.50;0.50;;;;;;;6.73;83.47;102733.97;5018039;28;20057;-72
2021/12/14 05:54:21;;;;;;;0.20;0.20;;;;;;;6.72;83.43;102744.25;5018062;28;20107;-73
2021/12/14 05:56:47;;;;;;;0.10;0.10;;;;;;;6.69;83.97;102742.34;5016640;28;20060;-72
2021/12/14 05:59:16;;;;;;;0.17;0.17;;;;;;;6.71;83.84;102748.59;5017373;28;20025;-72
2021/12/14 06:01:42;;;;;;;0.30;0.30;;;;;;;6.72;83.80;102744.25;5016677;28;20022;-72
2021/12/14 06:04:08;;;;;;;0.30;0.30;;;;;;;6.80;83.56;102753.53;5017852;28;20029;-72
2021/12/14 06:06:44;;;;;;;0.30;0.30;;;;;;;6.76;83.41;102754.13;5017380;28;20022;-72
2021/12/14 06:09:30;;;;;;;0.20;0.20;;;;;;;6.76;83.54;102750.59;5017293;28;20029;-72
2021/12/14 06:12:03;;;;;;;0.43;0.43;;;;;;;6.78;83.54;102754.25;5016198;28;20040;-72
2021/12/14 06:14:30;;;;;;;0.87;0.40;;;;;;;6.77;83.52;102749.84;5016667;28;20312;-72
2021/12/14 06:17:05;;;;;;;0.50;0.50;;;;;;;6.74;83.55;102748.78;5017395;28;20030;-72
2021/12/14 06:19:35;;;;;;;0.20;0.20;;;;;;;6.74;84.19;102753.13;5017399;28;20041;-72
2021/12/14 06:22:13;;;;;;;0.10;0.10;;;;;;;6.73;83.61;102754.78;5016864;28;20021;-72
2021/12/14 06:24:41;;;;;;;0.57;0.57;;;;;;;6.74;83.70;102755.72;5017555;28;20014;-73
2021/12/14 06:27:09;;;;;;;0.30;0.30;;;;;;;6.76;83.54;102761.03;5017599;28;20029;-72
2021/12/14 06:29:38;;;;;;;0.20;0.20;;;;;;;6.74;83.72;102763.53;5015712;28;20315;-72
2021/12/14 06:32:28;;;;;;;0.33;0.33;;;;;;;6.73;83.69;102764.31;5016959;28;20080;-72
2021/12/14 06:34:57;;;;;;;0.20;0.20;;;;;;;6.72;83.88;102757.28;5017544;28;20028;-72
2021/12/14 06:40:11;;;;;;;0.17;0.17;;;;;;;6.72;83.83;102759.88;5016646;28;20040;-71
2021/12/14 06:42:46;;;;;;;0.10;0.10;;;;;;;6.69;83.91;102763.19;5016875;28;20041;-73
2021/12/14 06:45:19;;;;;;;0.20;0.20;;;;;;;6.69;83.99;102764.88;5017072;28;20387;-71
2021/12/14 06:47:47;;;;;;;0.73;0.57;;;;;;;6.76;83.91;102777.56;5017035;28;20049;-70
2021/12/14 06:50:18;;;;;;;0.20;0.20;;;;;;;6.75;83.94;102783.56;5017466;28;20025;-73
2021/12/14 06:52:54;;;;;;;0.37;0.27;;;;;;;6.71;84.01;102784.09;5016673;28;20356;-72
2021/12/14 06:55:21;;;;;;;0.50;0.50;;;;;;;6.68;84.31;102777.00;5017305;28;20029;-73
2021/12/14 06:57:47;;;;;;;0.30;0.30;;;;;;;6.68;84.23;102786.50;5015885;28;20331;-72
2021/12/14 07:00:13;;;;;;;0.30;0.30;;;;;;;6.72;84.05;102780.72;5017321;28;20033;-72
2021/12/14 07:02:45;;;;;;;0.23;0.23;;;;;;;6.72;84.26;102785.91;5017277;28;20028;-71
2021/12/14 07:05:24;;;;;;;0.30;0.30;;;;;;;6.70;84.28;102782.31;5016805;28;20407;-72
2021/12/14 07:07:50;;;;;;;0.20;0.20;;;;;;;6.71;84.09;102789.31;5016377;28;20108;-72
2021/12/14 07:10:16;;;;;;;0.10;0.10;;;;;;;6.74;84.04;102789.56;5017158;28;20356;-71
2021/12/14 07:12:42;;;;;;;0.20;0.20;;;;;;;6.73;84.77;102787.75;5015697;28;20373;-73
2021/12/14 07:15:16;;;;;;;0.20;0.20;;;;;;;6.75;84.01;102783.56;5016750;28;20041;-72
2021/12/14 07:17:52;;;;;;;0.30;0.30;;;;;;;6.73;84.56;102786.03;5003942;28;20030;-71
2021/12/14 07:20:27;;;;;;;0.20;0.20;;;;;;;6.73;84.19;102785.16;5015398;28;20376;-72
2021/12/14 07:22:57;;;;;;;0.33;0.33;;;;;;;6.71;84.46;102784.09;5004513;28;20112;-71
2021/12/14 07:25:29;;;;;;;0.30;0.30;;;;;;;6.71;84.18;102785.03;5016012;28;20058;-72
2021/12/14 07:27:58;;;;;;;0.33;0.33;;;;;;;6.70;84.69;102797.94;5016127;28;20030;-73
2021/12/14 07:30:38;;;;;;;0.20;0.20;;;;;;;6.77;83.80;102795.00;5016684;28;20407;-72
2021/12/14 07:33:20;;;;;;;0.30;0.30;;;;;;;6.77;84.47;102807.13;5016699;28;20033;-72
2021/12/14 07:35:58;;;;;;;0.27;0.27;;;;;;;6.80;84.43;102805.63;5016776;28;20056;-73
2021/12/14 07:38:37;;;;;;;0.20;0.20;;;;;;;6.81;84.40;102810.06;5016298;28;20040;-72
2021/12/14 07:41:05;;;;;;;0.20;0.20;;;;;;;6.81;84.60;102817.88;5015911;28;20060;-71
2021/12/14 07:43:35;;;;;;;0.10;0.10;;;;;;;6.82;84.72;102817.09;5016039;28;20034;-71
2021/12/14 07:46:01;;;;;;;0.20;0.20;;;;;;;6.83;84.86;102812.78;5016766;28;20435;-71
2021/12/14 07:48:50;;;;;;;0.23;0.23;;;;;;;6.82;85.13;102818.78;5015369;28;20029;-71
2021/12/14 07:51:17;;;;;;;3.50;0.63;;;;;;;6.80;85.23;102823.84;5017156;28;20026;-72
2021/12/14 07:54:08;;;;;;;0.20;0.20;;;;;;;6.87;85.45;102820.94;5019322;28;20061;-71
2021/12/14 07:56:39;;;;;;;3.60;0.83;;;;;;;6.80;85.57;102826.47;5020067;28;20084;-72
2021/12/14 07:59:15;;;;;;;0.20;0.20;;;;;;;6.76;86.11;102831.31;5019670;28;20315;-72
2021/12/14 08:01:40;;;;;;;;;;;;;;;6.78;86.15;102828.06;5020402;28;20395;-72
2021/12/14 08:04:10;;;;;;;0.10;0.10;;;;;;;6.79;86.38;102831.56;5019885;28;19909;-71
2021/12/14 08:06:45;;;;;;;0.27;0.27;;;;;;;6.78;86.46;102833.25;5019480;28;20360;-72
2021/12/14 08:09:17;;;;;;;0.10;0.10;;;;;;;6.78;86.57;102834.97;5019791;28;20026;-73
2021/12/14 08:11:49;;;;;;;0.20;0.20;;;;;;;6.76;86.60;102834.84;5003324;28;20055;-72
2021/12/14 08:14:26;;;;;;;0.10;0.10;;;;;;;6.78;87.01;102841.06;5018984;28;20064;-73
2021/12/14 08:16:57;;;;;;;0.33;0.33;;;;;;;6.77;87.06;102841.88;5019977;28;20376;-72
2021/12/14 08:19:27;;;;;;;0.10;0.10;;;;;;;6.77;87.20;102841.88;5019434;28;20061;-72
2021/12/14 08:21:55;;;;;;;0.10;0.10;;;;;;;6.79;87.41;102842.88;5019117;28;20026;-72
2021/12/14 08:24:20;;;;;;;0.10;0.10;;;;;;;6.80;87.54;102838.59;5018852;28;20029;-70
2021/12/14 08:26:50;;;;;;;0.10;0.10;;;;;;;6.80;87.58;102849.00;5019468;28;20114;-73
2021/12/14 08:29:19;;;;;;;0.33;0.33;;;;;;;6.82;87.35;102847.41;5018527;28;20319;-73
2021/12/14 08:31:49;;;;;;;0.10;0.10;;;;;;;6.87;87.14;102853.91;5019311;28;20075;-71
2021/12/14 08:34:23;;;;;;;0.10;0.10;;;;;;;6.84;87.68;102854.56;5018265;28;20145;-71
2021/12/14 08:37:04;;;;;;;0.10;0.10;;;;;;;6.91;87.22;102858.53;5018873;28;20096;-72
2021/12/14 08:39:33;;;;;;;0.10;0.10;;;;;;;6.90;87.29;102861.03;5018025;28;20041;-72
2021/12/14 08:42:46;;;;;;;0.10;0.10;;;;;;;6.91;87.37;102860.25;5018609;28;20038;-72
2021/12/14 08:45:26;;;;;;;0.00;0.00;;;;;;;6.93;87.36;102871.69;5015027;28;20042;-72
2021/12/14 08:48:18;;;;;;;0.10;0.10;;;;;;;6.94;87.13;102861.38;5019071;28;20036;-70
2021/12/14 08:50:45;;;;;;;0.10;0.10;;;;;;;6.93;87.15;102871.69;5019097;28;20034;-74
2021/12/14 08:53:11;;;;;;;0.20;0.20;;;;;;;6.95;87.18;102867.47;5018991;28;20049;-71
2021/12/14 08:55:38;;;;;;;0.10;0.10;;;;;;;6.97;87.22;102865.94;5017731;28;20034;-71
2021/12/14 08:58:05;;;;;;;0.10;0.10;;;;;;;6.96;87.24;102872.81;5016739;28;20105;-72
2021/12/14 09:00:36;;;;;;;0.10;0.10;;;;;;;6.96;87.18;102870.22;5018978;28;20069;-71
2021/12/14 09:03:05;;;;;;;0.20;0.20;;;;;;;7.00;87.46;102858.34;5019498;28;20050;-72
2021/12/14 09:05:37;;;;;;;0.10;0.10;;;;;;;7.03;87.15;102858.56;5018705;28;20040;-71
2021/12/14 09:08:03;;;;;;;0.10;0.10;;;;;;;7.06;87.17;102860.50;5017615;28;20041;-73
2021/12/14 09:10:32;;;;;;;0.10;0.10;;;;;;;7.07;87.38;102858.00;5017702;28;20104;-72
2021/12/14 09:13:02;;;;;;;0.27;0.27;;;;;;;7.08;87.25;102849.41;5018351;28;20033;-71
2021/12/14 09:15:35;;;;;;;0.10;0.10;;;;;;;7.10;86.96;102853.00;5018737;28;20369;-73
2021/12/14 09:18:04;;;;;;;0.03;0.03;;;;;;;7.17;86.75;102859.63;5019471;28;20022;-72
2021/12/14 09:20:33;;;;;;;0.03;0.03;;;;;;;7.16;86.86;102852.56;5018279;28;20026;-74
2021/12/14 09:23:04;;;;;;;0.00;0.00;;;;;;;7.17;87.11;102857.00;5050965;28;20028;-71
2021/12/14 09:25:32;;;;;;;0.10;0.10;;;;;;;7.24;87.03;102867.06;5001221;28;20041;-71
2021/12/14 09:28:04;;;;;;;0.10;0.10;;;;;;;7.31;86.12;102864.91;5017800;28;20380;-72
2021/12/14 09:30:34;;;;;;;0.10;0.10;;;;;;;7.29;86.37;102865.72;5018110;28;20349;-73
2021/12/14 09:33:00;;;;;;;0.10;0.10;;;;;;;7.28;86.59;102869.13;5018195;28;20065;-71
2021/12/14 09:35:28;;;;;;;0.00;0.00;;;;;;;7.31;86.66;102876.25;5017552;28;20061;-71
2021/12/14 09:37:55;;;;;;;0.20;0.20;;;;;;;7.35;86.54;102877.41;5018002;28;20026;-71
2021/12/14 09:40:39;;;;;;;0.20;0.20;;;;;;;7.35;86.47;102870.47;5017083;28;20080;-73
2021/12/14 09:43:05;;;;;;;0.10;0.10;;;;;;;7.39;86.08;102872.53;5017661;28;20030;-70
2021/12/14 09:45:44;;;;;;;0.10;0.10;;;;;;;7.37;86.17;102871.50;5017558;28;20026;-72
2021/12/14 09:48:20;;;;;;;0.17;0.17;;;;;;;7.43;86.06;102879.75;5017725;28;20033;-73
2021/12/14 09:50:47;;;;;;;0.20;0.20;;;;;;;7.49;86.04;102875.81;5017889;28;20029;-71
2021/12/14 09:53:16;;;;;;;0.10;0.10;;;;;;;7.52;85.66;102873.41;5018157;28;20022;-72
2021/12/14 09:55:42;;;;;;;0.10;0.10;;;;;;;7.51;85.62;102874.22;5017776;28;20040;-72
2021/12/14 09:58:15;;;;;;;0.20;0.20;;;;;;;7.54;85.54;102867.53;5015922;28;20065;-73
2021/12/14 10:00:46;;;;;;;0.10;0.10;;;;;;;7.56;85.69;102870.25;5017049;28;20344;-72
2021/12/14 10:03:12;;;;;;;0.10;0.10;;;;;;;7.63;85.31;102869.91;5017895;28;20105;-71
2021/12/14 10:05:48;;;;;;;0.10;0.10;;;;;;;7.62;85.25;102865.50;5017915;28;20030;-73
2021/12/14 10:08:20;;;;;;;0.30;0.30;;;;;;;7.68;85.32;102870.25;5016523;28;20373;-72
2021/12/14 10:11:03;;;;;;;0.10;0.10;;;;;;;7.66;85.45;102869.22;5017789;28;20025;-71
2021/12/14 10:13:31;;;;;;;0.10;0.10;;;;;;;7.72;85.28;102869.66;5016944;28;20312;-72
2021/12/14 10:15:58;;;;;;;0.20;0.20;;;;;;;7.70;85.31;102866.97;5017562;28;20330;-73
2021/12/14 10:18:25;;;;;;;0.10;0.10;;;;;;;7.71;85.62;102865.22;5017071;28;20034;-73
2021/12/14 10:21:12;;;;;;;0.10;0.10;;;;;;;7.70;85.65;102876.47;5017269;28;20037;-73
2021/12/14 10:23:40;;;;;;;0.30;0.30;;;;;;;7.68;85.85;102875.47;4997184;28;20053;-73
2021/12/14 10:26:06;;;;;;;0.20;0.20;;;;;;;7.65;86.01;102876.13;5004652;28;20372;-74
2021/12/14 10:28:34;;;;;;;0.10;0.10;;;;;;;7.67;86.04;102877.16;5016812;28;20030;-74
2021/12/14 10:31:03;;;;;;;0.20;0.20;;;;;;;7.66;86.47;102877.94;5016714;28;20296;-74
2021/12/14 10:33:31;;;;;;;0.30;0.30;;;;;;;7.69;86.45;102877.28;5015810;28;20053;-73
2021/12/14 10:36:03;;;;;;;0.10;0.10;;;;;;;7.68;86.19;102878.97;5017599;28;20030;-73
2021/12/14 10:38:40;;;;;;;0.23;0.23;;;;;;;7.66;86.59;102885.78;5016858;28;20033;-77
2021/12/14 10:43:58;;;;;;;0.20;0.20;;;;;;;7.65;86.97;102878.75;5017247;28;20300;-75
2021/12/14 10:46:27;;;;;;;0.10;0.10;;;;;;;7.63;86.96;102885.56;5017847;28;20030;-76
2021/12/14 10:48:53;;;;;;;0.10;0.10;;;;;;;7.62;87.25;102875.00;5016760;28;20030;-74
2021/12/14 10:51:24;;;;;;;0.10;0.10;;;;;;;7.62;87.73;102873.31;5017924;28;20036;-74
2021/12/14 10:53:52;;;;;;;0.20;0.20;;;;;;;7.61;87.99;102871.50;5016729;28;20105;-74
2021/12/14 10:56:22;;;;;;;0.10;0.10;;;;;;;7.66;87.92;102874.44;5017502;28;20025;-74
2021/12/14 10:58:52;;;;;;;0.13;0.13;;;;;;;7.63;87.99;102869.00;5016100;28;20051;-72
2021/12/14 11:01:27;;;;;;;0.10;0.10;;;;;;;7.64;88.08;102866.50;5017155;28;20042;-75
2021/12/14 11:03:56;;;;;;;0.10;0.10;;;;;;;7.71;87.93;102867.84;5017392;28;20376;-74
2021/12/14 11:06:28;;;;;;;0.63;0.63;;;;;;;7.72;87.89;102872.25;5017631;28;20118;-74
2021/12/14 11:11:33;;;;;;;0.10;0.10;;;;;;;7.73;88.26;102866.28;5017419;28;20383;-74
2021/12/14 11:14:01;;;;;;;0.10;0.10;;;;;;;7.73;88.07;102863.66;5016640;28;20076;-75
2021/12/14 11:19:38;;;;;;;0.00;0.00;;;;;;;7.76;88.18;102863.88;5016820;28;20084;-74
2021/12/14 11:22:18;;;;;;;0.10;0.10;;;;;;;7.75;88.34;102864.69;5016950;28;20032;-73
2021/12/14 11:24:52;;;;;;;0.10;0.10;;;;;;;7.81;88.18;102862.53;5016984;28;20080;-74
2021/12/14 11:27:28;;;;;;;0.10;0.10;;;;;;;7.79;88.30;102858.88;5017816;28;20300;-73
2021/12/14 11:30:07;;;;;;;0.10;0.10;;;;;;;7.80;88.33;102857.19;5021360;28;20045;-72
2021/12/14 11:32:33;;;;;;;0.10;0.10;;;;;;;7.78;88.45;102867.50;5019654;28;20050;-73
2021/12/14 11:35:01;;;;;;;0.10;0.10;;;;;;;7.83;88.34;102866.13;5021081;28;20118;-72
2021/12/14 11:37:33;;;;;;;0.10;0.10;;;;;;;7.82;88.39;102864.34;5036372;28;20030;-74
2021/12/14 11:40:01;;;;;;;0.10;0.10;;;;;;;7.80;88.55;102858.06;5019635;28;20076;-74
2021/12/14 11:42:27;;;;;;;0.00;0.00;;;;;;;7.87;88.46;102858.53;5019927;28;20021;-73
2021/12/14 11:44:55;;;;;;;0.10;0.10;;;;;;;7.86;88.32;102857.63;5019255;28;20112;-73
2021/12/14 11:50:14;;;;;;;;;;;;;;;7.87;88.48;102859.44;5021061;28;20033;-73
2021/12/14 11:53:10;;;;;;;0.10;0.10;;;;;;;7.93;88.35;102852.06;5020063;28;19913;-74
2021/12/14 11:55:47;;;;;;;0.10;0.10;;;;;;;7.95;88.39;102853.06;5020335;28;20101;-72
2021/12/14 11:58:30;;;;;;;0.10;0.10;;;;;;;7.95;88.34;102855.69;5019858;28;20032;-73
2021/12/14 12:01:14;;;;;;;0.00;0.00;;;;;;;7.94;88.29;102852.94;5020346;28;20038;-73
2021/12/14 12:03:55;;;;;;;0.17;0.17;;;;;;;7.91;88.46;102850.13;5019731;28;20065;-73
2021/12/14 12:09:32;;;;;;;;;;;;;;;7.91;88.67;102855.34;5019932;28;20034;-74
2021/12/14 12:12:03;;;;;;;0.00;0.00;;;;;;;7.90;88.79;102849.22;5019744;28;19913;-75
2021/12/14 12:14:49;;;;;;;0.20;0.20;;;;;;;7.91;88.77;102850.13;5018775;28;20289;-74
2021/12/14 12:17:41;;;;;;;0.00;0.00;;;;;;;7.95;88.95;102850.47;5020085;28;20076;-74
2021/12/14 12:20:18;;;;;;;0.23;0.23;;;;;;;7.96;88.85;102843.53;5003114;28;20133;-75
2021/12/14 12:22:49;;;;;;;0.10;0.10;;;;;;;7.97;88.97;102845.38;5018109;28;20352;-73
2021/12/14 12:25:21;;;;;;;0.10;0.10;;;;;;;7.98;89.05;102844.56;5019914;28;20026;-74
2021/12/14 12:28:01;;;;;;;0.00;0.00;;;;;;;8.00;88.93;102837.75;5018434;28;20030;-72
2021/12/14 12:30:39;;;;;;;0.00;0.00;;;;;;;8.03;89.09;102837.94;5018727;28;20080;-74
2021/12/14 12:33:19;;;;;;;0.00;0.00;;;;;;;8.07;88.98;102842.59;5019319;28;20037;-72
2021/12/14 12:36:05;;;;;;;0.03;0.03;;;;;;;8.10;89.06;102837.59;5019093;28;20040;-73
2021/12/14 12:38:41;;;;;;;;;;;;;;;8.16;89.03;102837.09;5013708;28;20032;-72
2021/12/14 12:41:25;;;;;;;0.20;0.20;;;;;;;8.22;88.98;102829.72;5018045;28;20223;-72
2021/12/14 12:43:55;;;;;;;0.10;0.10;;;;;;;8.28;88.42;102824.00;5018696;28;20045;-72
2021/12/14 12:46:25;;;;;;;0.10;0.10;;;;;;;8.26;88.77;102825.59;5017303;28;20030;-72